2░ TROFEO AVIS CITTA' DI TODI --- km 6.6 / 4,4
Todi (Pg) - 08/06/11

diploma di partecipazione

confronto edizione 2011/2010

 

Ordine d'arrivo generale maschile - km 6,6
Pos. Pett. Cognome Nome Societa' Anno Categoria Tempo Media
1 132 Mourad Haibel Libertas Orvieto Tr 1978 Amat-m 00:21:45 3,18
2 101 El Khalil Yassin Atletica Capanne Pg 1992 Amat-m 00:21:51 3,19
F.G. N.C. Boncio Matteo Atletica Asal Foligno 1995 Allievi 00:23:08 3,30
3 30 Florio Francesco Runners Sangemini Tr 1961 Sm-50 00:23:52 3,37
4 74 Bajaddi Yassine Avis Uisport Todi 1993 Amat-m 00:23:53 3,37
5 104 Cardarelli Moreno Atletica Asal Foligno 1969 Sm-40 00:24:02 3,38
6 70 Benedetti Ferdinando Atletica Avis Perugia 1962 Sm-45 00:24:11 3,40
7 75 Vincenzoni Simone Clt Thyssenkrupp Tr 1973 Sm-35 00:24:16 3,41
8 42 Marinangeli Samuele Satrini Group Athletic Trevi 1984 Amat-m 00:24:18 3,41
9 64 Licata Gabriele Gubbio Runners 1973 Sm-35 00:24:21 3,41
10 24 Sacchi Roberto Runners Sangemini Tr 1968 Sm-40 00:24:24 3,42
11 1 Favorito Marco Runners Sangemini Tr 1964 Sm-45 00:24:25 3,42
12 56 Renzetti Stefano Pal. Gi Point S.Giustino 1966 Sm-45 00:24:26 3,42
13 9 Salvati William Podistica Carsulae Tr 1975 Sm-35 00:24:46 3,45
14 54 Busto Marco Gubbio Runners 1964 Sm-45 00:24:57 3,47
15 35 Scatoloni Paolo Podistica Avis Deruta 1977 Amat-m 00:25:02 3,48
16 62 Sfondalmondo Massimiliano Atletica Avis Perugia 1971 Sm-40 00:25:03 3,48
17 6 Bonacci Cristiano Satrini Group Athletic Trevi 1982 Amat-m 00:25:05 3,48
18 116 Pascucci Danilo Atletica Asal Foligno 1960 Sm-50 00:25:06 3,48
19 45 Pirilli Andrea Dream Runners Pg 1969 Sm-40 00:25:17 3,50
20 26 Marini Oliviero Runners Sangemini Tr 1964 Sm-45 00:25:20 3,50
21 22 Cavallucci Marco Runners Sangemini Tr 1967 Sm-40 00:25:29 3,52
22 72 Bazzucchi Mauro A.s.p.a. Bastia U. Pg 1965 Sm-45 00:25:37 3,53
23 500 D'Amico Giovanni CDP-T&RB Group Pg 1956 Sm-55 00:25:38 3,53
24 115 Carducci Leonardo Atletica Asal Foligno 1968 Sm-40 00:25:39 3,53
25 113 Petrini Daniele Atletica Spoleto 2010 1984 Amat-m 00:25:40 3,53
26 136 Casalini Sergio Pod. Winner Foligno 1984 Amat-m 00:25:41 3,53
27 29 Bartollini Sandro Runners Sangemini Tr 1957 Sm-50 00:25:43 3,54
28 123 Azzarelli Enrico Pod. Winner Foligno 1990 Amat-m 00:25:45 3,54
29 119 Chieruzzi Paolo G.s. A. Monti Terni 1968 Sm-40 00:25:48 3,55
30 5 Caporaletti Simone Avis Uisport Todi 1976 Sm-35 00:25:59 3,56
31 10 Ruggieri Giovanni Libertas Orvieto Tr 1976 Sm-35 00:26:02 3,57
32 28 Guidobaldi Francesco Runners Sangemini Tr 1959 Sm-50 00:26:04 3,57
33 110 Della Manna Massimo Pod. Winner Foligno 1966 Sm-45 00:26:06 3,57
34 125 Rigoletti Urbano Satrini Group Athletic Trevi 1967 Sm-40 00:26:07 3,57
35 2 Bertolini Ademaro CDP-T&RB Group Pg 1956 Sm-55 00:26:16 3,59
36 58 Ottavi Emanuele Podistica Carsulae Tr 1975 Sm-35 00:26:18 3,59
37 19 Polticchia Roberto CDP-T&RB Group Pg 1964 Sm-45 00:26:22 4,00
38 138 Di Liberto Riccardo CDP-T&RB Group Pg 1972 Sm-35 00:26:26 4,00
39 94 Filauro Giampaolo Alpi Apuane 1967 Sm-40 00:26:28 4,01
40 102 Liberti Fabio CDP-T&RB Group Pg 1977 Amat-m 00:26:31 4,01
41 49 Granieri Fiorini Fabrizio Avis Uisport Todi 1969 Sm-40 00:26:33 4,01
42 21 Costanzi Enrico Runners Sangemini Tr 1978 Amat-m 00:26:41 4,03
43 51 Saleppico Moreno Avis Uisport Todi 1969 Sm-40 00:26:43 4,03
44 39 Covarelli Mauro Atletica Avis Perugia 1959 Sm-50 00:26:46 4,03
45 71 Rossini Gianfranco A.s.p.a. Bastia U. Pg 1962 Sm-45 00:26:47 4,03
46 40 Marconi Simone Volumnia Sericap Pg 1974 Sm-35 00:26:57 4,05
47 131 Zoccolini Michele Atletica Capanne Pg 1974 Sm-35 00:26:59 4,05
48 90 Bianchi Walter Dream Runners Pg 1958 Sm-50 00:27:01 4,06
49 141 Giacomelli Matteo Podistica Avis Terni 1986 Amat-m 00:27:02 4,06
50 97 Biondini Marco Avis Uisport Todi 1990 Amat-m 00:27:03 4,06
51 129 Sargenti Augusto Atletica Il Colle Pg 1955 Sm-55 00:27:12 4,07
52 60 Arcelli Fabrizio Atletica Avis Perugia 1964 Sm-45 00:27:24 4,09
53 16 Losito Corrado CDP-T&RB Group Pg 1970 Sm-40 00:27:29 4,10
54 13 Santantonio Paolo Atletica Il Colle Pg 1966 Sm-45 00:27:30 4,10
55 122 Giuliani Maurizio G.s. A. Monti Terni 1969 Sm-40 00:27:33 4,10
56 79 Alcidi Simone Avis Uisport Todi 1976 Sm-35 00:27:36 4,11
57 82 Alunno Angelo A.p. Pontefelcino Pg 1954 Sm-55 00:27:37 4,11
58 17 Mangialasche Alfonso CDP-T&RB Group Pg 1951 Sm-60 00:27:39 4,11
59 66 Biscarini Paolo CDP-T&RB Group Pg 1958 Sm-50 00:27:51 4,13
60 27 Liti Sergio Runners Sangemini Tr 1961 Sm-50 00:27:58 4,14
61 83 Moscatello Stefano Volumnia Sericap Pg 1967 Sm-40 00:28:01 4,15
62 3 Caviglioni Patrizio CDP-T&RB Group Pg 1980 Amat-m 00:28:05 4,15
63 127 Bisogni Marco Satrini Group Athletic Trevi 1971 Sm-40 00:28:08 4,16
64 128 Rossi Pierluigi Podistica Avis Deruta 1975 Sm-35 00:28:15 4,17
65 140 Procacci Nadio Marathon C. di Castello 1970 Sm-40 00:28:17 4,17
66 139 Pierini Giuseppe Marathon C. di Castello 1961 Sm-50 00:28:18 4,17
67 73 Di Matteo Mario Atletica Capanne Pg 1954 Sm-55 00:28:21 4,18
68 86 Natalicchi Cesare Dream Runners Pg 1956 Sm-55 00:28:25 4,18
69 80 Caporaletti Francesco Atletica Il Colle Pg 1985 Amat-m 00:28:27 4,19
70 53 Bettini Roberto Avis Uisport Todi 1978 Amat-m 00:28:28 4,19
71 8 Cappelletti Nicola Avis Uisport Todi 1978 Amat-m 00:28:29 4,19
72 77 Giacomelli Davide Runners Sangemini Tr 1975 Sm-35 00:28:35 4,20
73 130 Bertini Matteo Avis Uisport Todi 1975 Sm-35 00:28:38 4,20
74 120 Coppa Alessandro G.s. A. Monti Terni 1974 Sm-35 00:28:40 4,21
75 87 Castraberte Mauro Dream Runners Pg 1988 Amat-m 00:28:41 4,21
76 67 Dentini Marco Avis Uisport Todi 1967 Sm-40 00:28:42 4,21
77 59 Saccoccini Marco Atletica Il Colle Pg 1977 Amat-m 00:28:43 4,21
78 63 Ceccarelli Paolo Atletica Avis Perugia 1967 Sm-40 00:28:44 4,21
79 57 Felici Dimitri Atletica Montefiascone 1981 Amat-m 00:28:46 4,22
80 41 Bordi Fabio Runners Sangemini Tr 1967 Sm-40 00:28:47 4,22
81 34 Ricciarelli Rocco Podistica Avis Deruta 1983 Amat-m 00:28:49 4,22
82 33 Martini Roberto Podistica Avis Deruta 1967 Sm-40 00:28:51 4,22
83 47 Pigini Alvaro Avis Uisport Todi 1959 Sm-50 00:28:53 4,23
84 46 Tomba Emanuele Avis Uisport Todi 1967 Sm-40 00:28:53 4,23
85 98 Cassetta Fabio Assisi Runners 1972 Sm-35 00:28:54 4,23
86 65 Larotonda Attilio CDP-T&RB Group Pg 1966 Sm-45 00:29:07 4,25
87 95 Duranti Roberto Atletica Il Colle Pg 1968 Sm-40 00:29:09 4,25
88 111 Agostinelli Roberto Atletica il Colle Pg 1968 Sm-40 00:29:11 4,25
89 11 Guercini Bruno Atletica Il Colle Pg 1949 Sm-60 00:29:12 4,25
90 99 Mazza Andrea Assisi Runners 1986 Amat-m 00:29:26 4,28
91 23 Fratini Massimiliano Runners Sangemini Tr 1967 Sm-40 00:29:33 4,29
92 105 Ciaccio Pierluigi CDP-T&RB Group Pg 1964 Sm-45 00:29:36 4,29
93 12 Profidia Luciano Esercito Ce.Sel.Na Foligno 1965 Sm-45 00:29:39 4,30
94 20 Tortorella Carlo CDP-T&RB Group Pg 1955 Sm-55 00:29:49 4,31
95 15 Passeri Luciano Atletica Il Colle Pg 1951 Sm-60 00:29:53 4,32
96 501 Mari Pietro G.s. A. Monti Terni 1969 Sm-40 00:29:56 4,32
97 32 Chiodi Alessio Podistica Avis Deruta 1975 Sm-35 00:29:58 4,32
98 25 Silicato Andrea Runners Sangemini Tr 1966 Sm-45 00:29:59 4,33
99 38 Canapari Francesco Atletica Avis Perugia 1958 Sm-50 00:30:00 4,33
100 124 Sguilla Enzo Atletica Avis Perugia 1951 Sm-60 00:30:12 4,35
101 135 Costantini Marco A.p. Pontefelcino Pg 1964 Sm-45 00:30:14 4,35
102 112 Crocioni Fabrizio Runners Sangemini Tr 1972 Sm-35 00:30:17 4,35
103 31 Tizzi Alberto Podistica Avis Deruta 1975 Sm-35 00:30:26 4,37
104 107 Crocione Daniele G.s. A. Monti Terni 1962 Sm-45 00:30:29 4,37
105 14 Gasbarro Massimo CDP-T&RB Group Pg 1971 Sm-40 00:30:30 4,37
106 96 Trinari Walter Atletica Il Colle Pg 1969 Sm-40 00:30:36 4,38
107 43 Brizi Fabrizio Atletica Il Colle Pg 1959 Sm-50 00:30:42 4,39
108 92 Bianchi Lorenzo Dream Runners Pg 1992 Amat-m 00:30:47 4,40
109 106 Quadraccia Ivano G.s. A. Monti Terni 1967 Sm-40 00:30:56 4,41
110 85 Pipinella Franco LBM Sport 1952 Sm-55 00:31:04 4,42
111 108 Di Fabrizio Manfredo Podistica Carsulae Tr 1963 Sm-45 00:31:10 4,43
112 93 Lucentini Emanuele Pod. Winner Foligno 1965 Sm-45 00:31:13 4,44
113 100 Cardaioli Francesco Atletica Capanne Pg 1970 Sm-40 00:31:23 4,45
114 126 Giorgetti Piero Satrini Group Athletic Trevi 1948 Sm-60 00:31:27 4,46
115 118 Dentini Mauro Atletica Avis Perugia 1945 Sm-65 00:31:33 4,47
116 134 Perito Stefano Atletica Avis Perugia 1952 Sm-55 00:31:35 4,47
117 504 Ricci Mauro Atleta Libero 1972 Sm-35 00:31:36 4,47
118 18 Menconi Antonello CDP-T&RB Group Pg 1967 Sm-40 00:31:45 4,49
119 133 Torricelli Renzo Atletica Avis Perugia 1953 Sm-55 00:31:59 4,51
120 91 SantagÓ Antonio Atletica Capanne Pg 1959 Sm-50 00:32:06 4,52
121 103 Cardaioli Danilo Atletica Il Colle Pg 1963 Sm-45 00:32:07 4,52
122 121 Giorgi Francesco Atletica Avis Perugia 1969 Sm-40 00:32:08 4,52
123 37 Biscarini Claudio Avis Uisport Todi 1954 Sm-55 00:32:20 4,54
124 81 Liberotti Giuseppe Podistica Carsulae Tr 1958 Sm-50 00:32:26 4,55
125 36 Tabarrini Marcello Satrini Group Athletic Trevi 1948 Sm-60 00:32:37 4,57
126 89 Castraberte Fausto Dream Runners Pg 1955 Sm-55 00:32:39 4,57
127 44 Carletti Mario Avis Uisport Todi 1960 Sm-50 00:32:49 4,58
128 117 Reali Gabriele Atletica Capanne Pg 1964 Sm-45 00:32:53 4,59
129 7 Chiocci Alessio CDP-T&RB Group Pg 1981 Amat-m 00:32:57 5,00
130 503 Cascianelli Alessio Atleta Libero 1989 Amat-m 00:33:08 5,01
131 144 Melis Massimiliano Atletica Spoleto 2010 1974 Sm-35 00:33:14 5,02
132 4 Chiocci Marcello CDP-T&RB Group Pg 1949 Sm-60 00:33:17 5,03
133 55 Dilio Andrea Atletica Montefiascone 1976 Sm-35 00:33:19 5,03
134 137 Caporali Francesco Atletica Avis Perugia 1958 Sm-50 00:33:33 5,05
135 109 Mantovani Nazzareno A.s.p.a. Bastia U. Pg 1954 Sm-55 00:33:40 5,06
136 84 Piccini Franco Atletica Capanne Pg 1958 Sm-50 00:34:51 5,17
137 50 Gari Roberto G.p. Airone Monti della Tolfa 1960 Sm-50 00:35:08 5,19
138 68 Scacciafratte Tonino Podistica Avis Terni 1950 Sm-60 00:35:40 5,24
139 88 Orioli Sergio Atletica Capanne Pg 1958 Sm-50 00:37:58 5,45
140 48 Torelli Fabrizio G.s. Avis Narni Tr 1964 Sm-45 00:40:28 6,08
141 76 Ricci C.Alberto A.s.p.a. Bastia U. Pg 1957 Sm-50 00:42:24 6,25
142 61 Tognoloni Matteo A.p. Pontefelcino Pg 1972 Sm-35 rit. ---
Ordine d'arrivo generale femminile - km 4,4
Pos. Pett. Cognome Nome Societa' Anno Categoria Tempo Media
1 158 Dottori Francesca CDP-T&RB Group Pg 1974 Under/40 00:17:06  3,53
2 149 Enriquez Irene Atletica Il Colle Pg 1977 Under/40 00:17:44  4,02
3 153 Guidi Greta Runners Sangemini Tr 1977 Under/40 00:18:38  4,14
4 161 Pimpinella Francesca LBM Sport 1985 Under/40 00:19:03  4,20
5 162 Draoli M. Cristina Assisi Runners 1964 Over/40 00:19:05  4,20
6 163 Basigli Ivana Atletica Capanne Pg 1961 Over/40 00:19:20  4,24
7 150 Andolfi Emanuela Atletica Montefiascone 1977 Under/40 00:19:34  4,27
8 165 PappadÓ Roberta Atletica Avis Perugia 1968 Over/40 00:19:36  4,27
9 169 Silei Laura Atletica Capanne Pg 1977 Under/40 00:19:43  4,29
10 159 Palombi Roberta Atletica Avis Perugia 1963 Over/40 00:20:00  4,33
11 155 Passamonti Alida CDP-T&RB Group Pg 1974 Under/40 00:20:20  4,37
12 148 Montanini Marianna Atletica Avis Perugia 1972 Under/40 00:20:32  4,40
13 156 Piastra Lorena CDP-T&RB Group Pg 1977 Under/40 00:20:36  4,41
14 167 Russo Catia C.u.s. Perugia 1985 Under/40 00:20:45  4,43
15 152 Del Bianco Silvia Atletica Avis Perugia 1965 Over/40 00:20:47  4,43
16 151 Adiutori Paola Uisp Orvieto 1968 Over/40 00:21:02  4,47
17 164 Pasquali Simona Atletica Avis Perugia 1977 Under/40 00:21:19  4,51
18 171 Ottobretti Elisa Satrini Group Athletic Trevi 1984 Under/40 00:21:41  4,56
19 502 Caporaletti Sara Avis Uisport Todi 1983 Under/40 00:22:33  5,08
20 145 Crisanti Helena Avis Uisport Todi 1993 Under/40 00:23:00  5,14
21 168 Boco Marinella Atletica Avis Perugia 1960 Over/40 00:23:13  5,17
22 157 Falchetti Anna Maria CDP-T&RB Group Pg 1966 Over/40 00:23:26  5,20
23 146 Vagnarelli Rema A.s.p.a. Bastia U. Pg 1964 Over/40 00:24:10  5,30
24 166 Fortunati Roberta Podistica Avis Terni 1974 Under/40 00:24:20  5,32
25 160 Benedetti Debora Esercito Ce.Sel.Na Foligno 1975 Under/40 00:24:30  5,34
26 154 Serafino Teresa Runners Sangemini Tr 1956 Over/40 00:26:25  6,00
27 147 Rondinelli Annarita Avis Terni 1956 Over/40 00:30:34  6,57
28 170 Scacciafratte Giulia Avis Terni 1988 Under/40 00:30:35  6,57

------------------------------

------------------------------

------------------------------